createdAt,value
2022-11-14T00:01:53.045Z,21.20
2022-11-14T00:04:35.511Z,20.90
2022-11-14T00:07:17.798Z,21.40
2022-11-14T00:10:00.259Z,23.80
2022-11-14T00:12:42.222Z,22.80
2022-11-14T00:15:24.810Z,24.70
2022-11-14T00:18:07.505Z,24.50
2022-11-14T00:20:51.526Z,25.00
2022-11-14T00:23:33.737Z,24.60
2022-11-14T00:26:15.966Z,24.60
2022-11-14T00:28:58.238Z,22.90
2022-11-14T00:31:40.386Z,25.10
2022-11-14T00:34:22.805Z,21.80
2022-11-14T00:37:05.108Z,24.10
2022-11-14T00:39:47.247Z,23.00
2022-11-14T00:42:29.739Z,23.50
2022-11-14T00:45:12.187Z,23.90
2022-11-14T00:47:54.204Z,24.00
2022-11-14T00:50:38.123Z,24.80
2022-11-14T00:53:20.483Z,24.10
2022-11-14T00:56:03.692Z,22.70
2022-11-14T00:58:46.031Z,22.00
2022-11-14T01:01:28.402Z,21.00
2022-11-14T01:04:10.632Z,21.70
2022-11-14T01:06:52.863Z,22.90
2022-11-14T01:09:35.388Z,19.40
2022-11-14T01:12:17.605Z,21.00
2022-11-14T01:14:59.872Z,20.50
2022-11-14T01:17:42.196Z,21.10
2022-11-14T01:20:25.043Z,20.90
2022-11-14T01:23:09.196Z,19.00
2022-11-14T01:25:51.064Z,21.00
2022-11-14T01:28:34.466Z,22.30
2022-11-14T01:31:19.993Z,21.20
2022-11-14T01:34:02.105Z,22.70
2022-11-14T01:36:44.371Z,21.20
2022-11-14T01:39:27.441Z,19.20
2022-11-14T01:42:09.457Z,19.30
2022-11-14T01:44:53.391Z,21.70
2022-11-14T01:47:35.943Z,16.00
2022-11-14T01:50:18.176Z,18.10
2022-11-14T01:53:00.276Z,17.00
2022-11-14T01:55:43.095Z,16.80
2022-11-14T01:58:28.174Z,21.50
2022-11-14T02:01:10.910Z,19.70
2022-11-14T02:03:55.915Z,17.70
2022-11-14T02:06:39.267Z,20.10
2022-11-14T02:09:22.021Z,20.30
2022-11-14T02:12:08.226Z,16.80
2022-11-14T02:14:55.703Z,19.30
2022-11-14T02:17:38.126Z,19.40
2022-11-14T02:20:23.170Z,21.00
2022-11-14T02:23:05.226Z,19.90
2022-11-14T02:25:47.311Z,21.00
2022-11-14T02:28:30.601Z,20.00
2022-11-14T02:31:14.200Z,19.30
2022-11-14T02:33:56.324Z,18.20
2022-11-14T02:36:38.763Z,18.90
2022-11-14T02:39:21.091Z,17.70
2022-11-14T02:42:03.162Z,19.50
2022-11-14T02:44:45.536Z,18.00
2022-11-14T02:47:28.057Z,18.70
2022-11-14T02:50:10.701Z,18.20
2022-11-14T02:52:54.086Z,18.90
2022-11-14T02:55:36.422Z,19.70
2022-11-14T02:58:18.750Z,18.90
2022-11-14T03:01:19.789Z,20.10
2022-11-14T03:04:02.752Z,19.20
2022-11-14T03:06:45.021Z,18.30
2022-11-14T03:09:27.549Z,16.90
2022-11-14T03:12:10.095Z,18.70
2022-11-14T03:14:52.353Z,18.50
2022-11-14T03:17:35.344Z,17.90
2022-11-14T03:20:18.265Z,17.50
2022-11-14T03:23:00.681Z,12.20
2022-11-14T03:25:42.732Z,18.30
2022-11-14T03:28:25.022Z,17.30
2022-11-14T03:31:08.611Z,16.30
2022-11-14T03:33:50.680Z,17.10
2022-11-14T03:36:34.705Z,17.50
2022-11-14T03:39:16.908Z,15.80
2022-11-14T03:41:58.964Z,17.30
2022-11-14T03:44:41.398Z,15.50
2022-11-14T03:47:24.568Z,16.50
2022-11-14T03:50:06.893Z,15.60
2022-11-14T03:52:50.378Z,16.20
2022-11-14T03:55:33.315Z,16.40
2022-11-14T03:58:15.404Z,16.30
2022-11-14T04:00:57.763Z,16.50
2022-11-14T04:03:40.193Z,15.10
2022-11-14T04:06:22.568Z,15.20
2022-11-14T04:09:04.649Z,16.70
2022-11-14T04:11:46.890Z,16.90
2022-11-14T04:14:29.556Z,16.50
2022-11-14T04:17:11.543Z,16.20
2022-11-14T04:19:53.872Z,17.60
2022-11-14T04:22:36.258Z,17.00
2022-11-14T04:25:18.629Z,16.50
2022-11-14T04:28:01.640Z,14.40
2022-11-14T04:30:45.378Z,15.90
2022-11-14T04:33:28.028Z,14.70
2022-11-14T04:36:10.389Z,13.80
2022-11-14T04:38:52.614Z,10.80
2022-11-14T04:41:34.928Z,11.90
2022-11-14T04:44:17.139Z,12.10
2022-11-14T04:46:59.378Z,12.30
2022-11-14T04:49:41.949Z,10.20
2022-11-14T04:52:24.167Z,9.50
2022-11-14T04:55:06.462Z,12.50
2022-11-14T04:57:55.057Z,12.00
2022-11-14T05:00:37.603Z,12.00
2022-11-14T05:03:20.039Z,11.00
2022-11-14T05:06:03.003Z,11.40
2022-11-14T05:08:45.046Z,11.00
2022-11-14T05:11:29.413Z,11.30
2022-11-14T05:14:11.706Z,10.70
2022-11-14T05:16:54.092Z,10.70
2022-11-14T05:19:36.392Z,11.40
2022-11-14T05:22:18.746Z,11.50
2022-11-14T05:25:00.848Z,10.20
2022-11-14T05:27:43.859Z,10.50
2022-11-14T05:30:26.131Z,10.60
2022-11-14T05:33:08.312Z,11.00
2022-11-14T05:35:50.573Z,10.80
2022-11-14T05:38:34.101Z,10.80
2022-11-14T05:41:20.190Z,11.20
2022-11-14T05:44:05.139Z,9.30
2022-11-14T05:46:46.960Z,10.60
2022-11-14T05:49:29.433Z,10.00
2022-11-14T05:52:11.872Z,10.70
2022-11-14T05:54:53.897Z,9.70
2022-11-14T05:57:36.317Z,9.90
2022-11-14T06:00:18.682Z,10.10
2022-11-14T06:03:00.853Z,10.90
2022-11-14T06:05:43.232Z,9.20
2022-11-14T06:08:25.690Z,9.00
2022-11-14T06:11:10.615Z,9.10
2022-11-14T06:13:52.574Z,10.00
2022-11-14T06:16:35.138Z,8.80
2022-11-14T06:19:17.323Z,7.90
2022-11-14T06:21:59.524Z,7.30
2022-11-14T06:24:41.957Z,8.50
2022-11-14T06:27:24.274Z,8.70
2022-11-14T06:30:06.941Z,9.20
2022-11-14T06:32:49.269Z,8.10
2022-11-14T06:35:33.259Z,9.00
2022-11-14T06:38:15.389Z,10.40
2022-11-14T06:41:07.208Z,9.00
2022-11-14T06:43:50.922Z,8.80
2022-11-14T06:46:33.317Z,9.00
2022-11-14T06:49:15.365Z,8.90
2022-11-14T06:51:57.588Z,8.60
2022-11-14T06:54:39.594Z,10.20
2022-11-14T06:57:21.900Z,7.50
2022-11-14T07:00:04.985Z,8.60
2022-11-14T07:02:49.143Z,8.80
2022-11-14T07:05:31.572Z,6.10
2022-11-14T07:08:18.436Z,9.20
2022-11-14T07:11:12.997Z,9.30
2022-11-14T07:13:58.301Z,8.10
2022-11-14T07:16:40.547Z,9.20
2022-11-14T07:19:22.806Z,10.90
2022-11-14T07:22:05.011Z,8.00
2022-11-14T07:24:47.542Z,8.90
2022-11-14T07:27:29.768Z,9.50
2022-11-14T07:30:12.260Z,8.50
2022-11-14T07:32:58.528Z,8.50
2022-11-14T07:35:40.786Z,8.10
2022-11-14T07:38:23.345Z,8.20
2022-11-14T07:41:08.642Z,8.50
2022-11-14T07:43:50.655Z,4.90
2022-11-14T07:46:33.268Z,8.90
2022-11-14T07:49:15.218Z,8.30
2022-11-14T07:51:57.603Z,8.60
2022-11-14T07:54:39.970Z,9.50
2022-11-14T07:57:22.369Z,8.80
2022-11-14T08:00:04.682Z,8.10
2022-11-14T08:02:47.679Z,9.60
2022-11-14T08:05:29.719Z,8.90
2022-11-14T08:08:11.893Z,9.60
2022-11-14T08:10:58.033Z,9.30
2022-11-14T08:13:40.253Z,9.40
2022-11-14T08:16:22.332Z,11.10
2022-11-14T08:19:04.748Z,9.50
2022-11-14T08:21:47.113Z,9.50
2022-11-14T08:24:29.414Z,10.70
2022-11-14T08:27:11.530Z,10.50
2022-11-14T08:29:53.924Z,10.10
2022-11-14T08:32:36.524Z,11.30
2022-11-14T08:35:18.762Z,10.80
2022-11-14T08:38:02.250Z,8.00
2022-11-14T08:40:44.784Z,9.30
2022-11-14T08:43:27.649Z,10.00
2022-11-14T08:46:09.775Z,11.30
2022-11-14T08:48:52.075Z,10.90
2022-11-14T08:51:36.439Z,9.70
2022-11-14T08:54:19.511Z,8.80
2022-11-14T08:57:01.631Z,9.70
2022-11-14T08:59:44.111Z,10.70
2022-11-14T09:02:26.336Z,9.90
2022-11-14T09:05:08.901Z,10.80
2022-11-14T09:07:51.295Z,11.20
2022-11-14T09:10:34.559Z,10.70
2022-11-14T09:13:17.176Z,7.70
2022-11-14T09:15:59.437Z,8.80
2022-11-14T09:18:41.745Z,9.10
2022-11-14T09:21:23.806Z,11.60
2022-11-14T09:24:06.607Z,11.10
2022-11-14T09:26:56.419Z,10.90
2022-11-14T09:29:39.749Z,11.30
2022-11-14T09:32:21.711Z,9.20
2022-11-14T09:35:04.420Z,12.20
2022-11-14T09:37:46.638Z,11.90
2022-11-14T09:40:29.230Z,12.60
2022-11-14T09:43:23.296Z,11.70
2022-11-14T09:46:18.207Z,11.40
2022-11-14T09:49:00.428Z,11.80
2022-11-14T09:51:52.552Z,9.30
2022-11-14T09:54:53.775Z,11.40
2022-11-14T09:57:35.896Z,12.20
2022-11-14T10:00:21.638Z,9.80
2022-11-14T10:03:17.725Z,10.70
2022-11-14T10:06:15.976Z,10.60
2022-11-14T10:09:17.369Z,10.80
2022-11-14T10:12:23.248Z,9.70
2022-11-14T10:15:16.272Z,11.30
2022-11-14T10:18:29.386Z,10.40
2022-11-14T10:21:15.410Z,10.60
2022-11-14T10:24:14.357Z,13.00
2022-11-14T10:27:03.651Z,10.90
2022-11-14T10:30:01.637Z,11.80
2022-11-14T10:32:57.435Z,12.00
2022-11-14T10:35:47.035Z,12.30
2022-11-14T10:38:39.051Z,12.40
2022-11-14T10:41:50.066Z,8.20
2022-11-14T10:44:33.351Z,10.40
2022-11-14T10:47:20.856Z,6.90
2022-11-14T10:50:15.984Z,12.00
2022-11-14T10:53:02.483Z,13.00
2022-11-14T10:56:03.514Z,11.10
2022-11-14T10:58:49.028Z,10.00
2022-11-14T11:01:35.565Z,11.60
2022-11-14T11:04:34.238Z,12.30
2022-11-14T11:07:39.201Z,12.60
2022-11-14T11:10:39.445Z,13.30
2022-11-14T11:13:33.175Z,13.60
2022-11-14T11:16:21.582Z,13.60
2022-11-14T11:19:24.936Z,13.20
2022-11-14T11:22:27.138Z,13.40
2022-11-14T11:25:26.987Z,15.10
2022-11-14T11:28:19.135Z,13.50
2022-11-14T11:31:06.147Z,13.90
2022-11-14T11:33:49.071Z,13.90
2022-11-14T11:36:40.989Z,12.00
2022-11-14T11:39:29.687Z,14.40
2022-11-14T11:42:20.366Z,12.80
2022-11-14T11:45:05.878Z,12.50
2022-11-14T11:47:58.379Z,10.80
2022-11-14T11:50:42.129Z,11.40
2022-11-14T11:53:29.494Z,12.20
2022-11-14T11:56:16.644Z,11.00
2022-11-14T11:59:22.179Z,11.40
2022-11-14T12:02:22.345Z,12.00
2022-11-14T12:05:05.241Z,10.90
2022-11-14T12:07:58.615Z,9.80
2022-11-14T12:10:42.899Z,10.60
2022-11-14T12:13:44.390Z,9.70
2022-11-14T12:16:45.541Z,10.20
2022-11-14T12:19:46.850Z,9.90
2022-11-14T12:22:47.435Z,9.10
2022-11-14T12:28:59.142Z,9.80
2022-11-14T12:31:42.694Z,9.70
2022-11-14T12:34:29.887Z,10.60
2022-11-14T12:37:20.828Z,12.20
2022-11-14T12:40:19.098Z,10.00
2022-11-14T12:43:03.328Z,10.10
2022-11-14T12:45:45.331Z,10.50
2022-11-14T12:48:27.580Z,8.50
2022-11-14T12:51:37.337Z,10.50
2022-11-14T12:54:42.720Z,10.90
2022-11-14T12:57:51.779Z,11.60
2022-11-14T13:00:37.847Z,11.70
2022-11-14T13:03:19.946Z,10.30
2022-11-14T13:06:17.739Z,11.00
2022-11-14T13:09:15.555Z,11.60
2022-11-14T13:12:13.600Z,11.20
2022-11-14T13:15:13.215Z,10.50
2022-11-14T13:18:28.393Z,12.10
2022-11-14T13:21:42.337Z,11.60
2022-11-14T13:24:27.204Z,11.40
2022-11-14T13:27:45.568Z,10.00
2022-11-14T13:31:02.464Z,11.00
2022-11-14T13:33:49.636Z,11.20
2022-11-14T13:36:36.877Z,11.50
2022-11-14T13:39:44.847Z,13.20
2022-11-14T13:42:35.450Z,13.00
2022-11-14T13:45:36.556Z,11.40
2022-11-14T13:48:28.151Z,13.20
2022-11-14T13:51:41.811Z,12.00
2022-11-14T13:54:18.440Z,12.10
2022-11-14T13:57:32.290Z,11.00
2022-11-14T14:00:20.895Z,12.60
2022-11-14T14:03:06.222Z,13.20
2022-11-14T14:06:01.086Z,14.10
2022-11-14T14:09:11.653Z,13.40
2022-11-14T14:12:19.322Z,12.60
2022-11-14T14:15:09.977Z,14.60
2022-11-14T14:18:04.232Z,14.80
2022-11-14T14:20:58.400Z,14.70
2022-11-14T14:23:53.967Z,15.40
2022-11-14T14:26:37.235Z,14.90
2022-11-14T14:29:28.203Z,14.90
2022-11-14T14:32:14.492Z,15.80
2022-11-14T14:34:59.637Z,15.30
2022-11-14T14:37:51.031Z,11.40
2022-11-14T14:40:35.998Z,12.80
2022-11-14T14:43:28.782Z,15.80
2022-11-14T14:46:11.223Z,16.00
2022-11-14T14:48:53.725Z,16.30
2022-11-14T14:51:38.355Z,16.30
2022-11-14T14:54:23.287Z,13.40
2022-11-14T14:57:21.291Z,15.70
2022-11-14T15:00:16.897Z,16.30
2022-11-14T15:02:59.359Z,15.60
2022-11-14T15:05:41.649Z,15.60
2022-11-14T15:08:23.871Z,16.60
2022-11-14T15:11:07.222Z,17.60
2022-11-14T15:13:56.846Z,18.00
2022-11-14T15:16:39.589Z,18.00
2022-11-14T15:19:25.099Z,18.80
2022-11-14T15:22:10.846Z,18.30
2022-11-14T15:25:11.891Z,19.00
2022-11-14T15:27:55.595Z,18.00
2022-11-14T15:30:39.278Z,17.40
2022-11-14T15:33:29.422Z,18.70
2022-11-14T15:36:14.131Z,18.10
2022-11-14T15:39:01.264Z,17.20
2022-11-14T15:41:44.160Z,14.70
2022-11-14T15:44:34.943Z,16.70
2022-11-14T15:47:21.142Z,17.80
2022-11-14T15:50:38.813Z,17.70
2022-11-14T15:53:23.655Z,14.30
2022-11-14T15:56:05.988Z,16.50
2022-11-14T15:58:49.633Z,18.00
2022-11-14T16:01:32.118Z,17.40
2022-11-14T16:04:18.529Z,16.90
2022-11-14T16:07:00.857Z,18.30
2022-11-14T16:09:43.833Z,17.30
2022-11-14T16:12:41.410Z,18.50
2022-11-14T16:15:23.462Z,18.90
2022-11-14T16:18:06.291Z,19.10
2022-11-14T16:20:49.377Z,15.50
2022-11-14T16:23:31.751Z,18.40
2022-11-14T16:26:14.166Z,17.90
2022-11-14T16:28:57.178Z,21.20
2022-11-14T16:31:39.553Z,20.00
2022-11-14T16:34:25.823Z,19.90
2022-11-14T16:37:13.022Z,20.50
2022-11-14T16:39:55.209Z,18.00
2022-11-14T16:42:37.482Z,19.80
2022-11-14T16:45:20.842Z,20.20
2022-11-14T16:48:02.943Z,21.60
2022-11-14T16:50:45.537Z,22.40
2022-11-14T16:53:28.184Z,22.10
2022-11-14T16:56:12.739Z,23.10
2022-11-14T17:01:39.020Z,21.70
2022-11-14T17:04:21.373Z,22.30
2022-11-14T17:07:03.695Z,22.50
2022-11-14T17:09:46.278Z,22.50
2022-11-14T17:12:28.812Z,22.80
2022-11-14T17:15:11.209Z,23.80
2022-11-14T17:17:53.478Z,22.70
2022-11-14T17:20:38.486Z,22.70
2022-11-14T17:23:20.723Z,22.90
2022-11-14T17:26:05.976Z,19.00
2022-11-14T17:28:48.805Z,20.80
2022-11-14T17:31:37.450Z,24.10
2022-11-14T17:34:20.483Z,22.50
2022-11-14T17:37:02.827Z,17.90
2022-11-14T17:39:45.615Z,21.10
2022-11-14T17:42:27.966Z,18.80
2022-11-14T17:45:10.254Z,18.80
2022-11-14T17:47:52.735Z,17.90
2022-11-14T17:50:40.014Z,21.30
2022-11-14T17:53:22.489Z,24.80
2022-11-14T17:56:05.211Z,95.00
2022-11-14T17:58:49.846Z,26.70
2022-11-14T18:01:31.889Z,28.80
2022-11-14T18:04:14.087Z,21.80
2022-11-14T18:06:56.673Z,23.10
2022-11-14T18:09:39.044Z,21.60
2022-11-14T18:12:20.960Z,22.80
2022-11-14T18:15:03.729Z,20.80
2022-11-14T18:17:46.431Z,24.20
2022-11-14T18:20:28.366Z,24.00
2022-11-14T18:23:10.868Z,22.00
2022-11-14T18:25:53.102Z,21.70
2022-11-14T18:28:35.226Z,21.00
2022-11-14T18:31:17.258Z,58.20
2022-11-14T18:33:59.662Z,19.30
2022-11-14T18:36:41.884Z,22.00
2022-11-14T18:39:26.214Z,18.70
2022-11-14T18:42:08.465Z,15.70
2022-11-14T18:44:51.697Z,22.30
2022-11-14T18:47:34.514Z,23.50
2022-11-14T18:50:16.890Z,24.10
2022-11-14T18:52:59.545Z,22.00
2022-11-14T18:55:41.691Z,22.90
2022-11-14T18:58:23.711Z,23.30
2022-11-14T19:01:16.620Z,25.50
2022-11-14T19:04:02.168Z,22.50
2022-11-14T19:06:44.613Z,81.10
2022-11-14T19:09:26.948Z,23.80
2022-11-14T19:12:25.091Z,23.40
2022-11-14T19:15:07.998Z,18.60
2022-11-14T19:17:50.531Z,22.90
2022-11-14T19:20:32.832Z,56.20
2022-11-14T19:23:15.190Z,24.20
2022-11-14T19:26:00.311Z,21.80
2022-11-14T19:28:42.570Z,23.40
2022-11-14T19:31:25.534Z,21.80
2022-11-14T19:34:07.964Z,16.20
2022-11-14T19:36:59.805Z,22.70
2022-11-14T19:39:42.974Z,17.10
2022-11-14T19:42:25.667Z,23.90
2022-11-14T19:45:08.435Z,23.90
2022-11-14T19:47:51.177Z,22.50
2022-11-14T19:50:33.583Z,25.40
2022-11-14T19:53:15.944Z,25.90
2022-11-14T19:56:00.953Z,23.90
2022-11-14T19:58:45.573Z,24.60
2022-11-14T20:01:28.724Z,21.90
2022-11-14T20:04:13.311Z,18.50
2022-11-14T20:06:55.831Z,29.60
2022-11-14T20:09:38.150Z,24.40
2022-11-14T20:12:20.244Z,23.20
2022-11-14T20:15:02.791Z,18.60
2022-11-14T20:17:44.994Z,27.30
2022-11-14T20:20:27.233Z,26.70
2022-11-14T20:23:09.911Z,26.70
2022-11-14T20:25:53.105Z,22.60
2022-11-14T20:28:35.572Z,25.30
2022-11-14T20:31:21.095Z,24.50
2022-11-14T20:34:03.374Z,23.00
2022-11-14T20:37:09.804Z,22.70
2022-11-14T20:39:49.777Z,22.40
2022-11-14T20:42:32.026Z,23.40
2022-11-14T20:45:13.968Z,22.70
2022-11-14T20:47:56.439Z,23.90
2022-11-14T20:50:38.727Z,23.50
2022-11-14T20:53:20.897Z,23.50
2022-11-14T20:56:04.228Z,23.90
2022-11-14T20:58:48.423Z,21.10
2022-11-14T21:01:30.408Z,22.40
2022-11-14T21:04:12.726Z,24.40
2022-11-14T21:06:55.691Z,25.40
2022-11-14T21:09:37.779Z,25.40
2022-11-14T21:12:20.042Z,24.60
2022-11-14T21:15:02.722Z,24.50
2022-11-14T21:17:44.832Z,25.30
2022-11-14T21:20:27.029Z,22.80
2022-11-14T21:23:09.217Z,24.50
2022-11-14T21:25:51.866Z,23.20
2022-11-14T21:28:36.693Z,22.80
2022-11-14T21:31:20.746Z,24.00
2022-11-14T21:36:48.444Z,20.70
2022-11-14T21:39:30.896Z,24.60
2022-11-14T21:42:17.135Z,25.60
2022-11-14T21:45:01.198Z,23.80
2022-11-14T21:47:43.653Z,25.10
2022-11-14T21:50:25.644Z,23.90
2022-11-14T21:53:16.237Z,24.50
2022-11-14T21:55:59.271Z,24.40
2022-11-14T21:58:41.769Z,23.30
2022-11-14T22:01:39.663Z,25.50
2022-11-14T22:04:22.310Z,25.30
2022-11-14T22:07:07.051Z,25.10
2022-11-14T22:09:49.585Z,25.00
2022-11-14T22:12:35.291Z,22.60
2022-11-14T22:15:17.609Z,24.80
2022-11-14T22:18:00.111Z,24.20
2022-11-14T22:20:42.489Z,25.40
2022-11-14T22:23:24.621Z,25.90
2022-11-14T22:26:07.248Z,25.10
2022-11-14T22:28:49.321Z,26.50
2022-11-14T22:31:31.541Z,24.60
2022-11-14T22:34:13.970Z,23.70
2022-11-14T22:36:56.304Z,24.40
2022-11-14T22:39:38.330Z,25.30
2022-11-14T22:42:21.197Z,24.60
2022-11-14T22:45:04.043Z,21.60
2022-11-14T22:47:46.498Z,22.90
2022-11-14T22:50:28.597Z,23.90
2022-11-14T22:53:10.964Z,24.40
2022-11-14T22:55:53.514Z,23.20
2022-11-14T22:58:38.500Z,21.90
2022-11-14T23:01:20.921Z,22.70
2022-11-14T23:04:05.470Z,22.10
2022-11-14T23:06:47.803Z,22.50
2022-11-14T23:09:31.805Z,21.60
2022-11-14T23:12:13.779Z,21.20
2022-11-14T23:14:56.236Z,21.90
2022-11-14T23:17:38.311Z,19.60
2022-11-14T23:20:20.559Z,20.60
2022-11-14T23:23:03.625Z,19.70
2022-11-14T23:25:45.900Z,19.80
2022-11-14T23:28:30.398Z,18.40
2022-11-14T23:31:12.885Z,19.00
2022-11-14T23:33:56.427Z,18.30
2022-11-14T23:36:38.542Z,18.70
2022-11-14T23:39:20.842Z,19.10
2022-11-14T23:42:03.399Z,19.10
2022-11-14T23:44:45.748Z,17.80
2022-11-14T23:47:27.704Z,18.40
2022-11-14T23:50:10.232Z,18.50
2022-11-14T23:52:52.685Z,17.90
2022-11-14T23:55:34.658Z,18.60
2022-11-14T23:58:17.019Z,19.50
